sensor_id;sensor_type;location;lat;lon;timestamp;P1;durP1;ratioP1;P2;durP2;ratioP2
40162;SDS011;25881;47.462;19.304;2023-03-13T00:00:59;18.00;;;9.23;;
40162;SDS011;25881;47.462;19.304;2023-03-13T00:03:24;16.95;;;9.73;;
40162;SDS011;25881;47.462;19.304;2023-03-13T00:05:54;19.92;;;9.77;;
40162;SDS011;25881;47.462;19.304;2023-03-13T00:08:19;19.63;;;10.25;;
40162;SDS011;25881;47.462;19.304;2023-03-13T00:10:45;19.47;;;10.83;;
40162;SDS011;25881;47.462;19.304;2023-03-13T00:13:10;18.27;;;9.93;;
40162;SDS011;25881;47.462;19.304;2023-03-13T00:15:35;24.90;;;11.70;;
40162;SDS011;25881;47.462;19.304;2023-03-13T00:18:00;21.47;;;11.23;;
40162;SDS011;25881;47.462;19.304;2023-03-13T00:20:26;19.37;;;8.43;;
40162;SDS011;25881;47.462;19.304;2023-03-13T00:22:51;15.93;;;7.53;;
40162;SDS011;25881;47.462;19.304;2023-03-13T00:25:16;16.20;;;8.90;;
40162;SDS011;25881;47.462;19.304;2023-03-13T00:27:41;18.50;;;9.10;;
40162;SDS011;25881;47.462;19.304;2023-03-13T00:30:07;18.80;;;9.70;;
40162;SDS011;25881;47.462;19.304;2023-03-13T00:32:32;18.45;;;9.30;;
40162;SDS011;25881;47.462;19.304;2023-03-13T00:34:57;18.33;;;10.13;;
40162;SDS011;25881;47.462;19.304;2023-03-13T00:37:23;15.73;;;8.67;;
40162;SDS011;25881;47.462;19.304;2023-03-13T00:39:48;16.73;;;9.87;;
40162;SDS011;25881;47.462;19.304;2023-03-13T00:42:13;15.77;;;8.93;;
40162;SDS011;25881;47.462;19.304;2023-03-13T00:44:38;14.10;;;8.53;;
40162;SDS011;25881;47.462;19.304;2023-03-13T00:47:04;17.33;;;9.83;;
40162;SDS011;25881;47.462;19.304;2023-03-13T00:49:31;14.05;;;8.75;;
40162;SDS011;25881;47.462;19.304;2023-03-13T00:51:56;14.82;;;9.50;;
40162;SDS011;25881;47.462;19.304;2023-03-13T00:54:21;14.40;;;9.10;;
40162;SDS011;25881;47.462;19.304;2023-03-13T00:56:46;17.63;;;9.00;;
40162;SDS011;25881;47.462;19.304;2023-03-13T00:59:12;13.57;;;8.23;;
40162;SDS011;25881;47.462;19.304;2023-03-13T01:01:37;14.50;;;8.80;;
40162;SDS011;25881;47.462;19.304;2023-03-13T01:04:04;13.98;;;8.80;;
40162;SDS011;25881;47.462;19.304;2023-03-13T01:06:30;15.48;;;8.60;;
40162;SDS011;25881;47.462;19.304;2023-03-13T01:08:56;13.98;;;7.70;;
40162;SDS011;25881;47.462;19.304;2023-03-13T01:11:23;14.55;;;8.93;;
40162;SDS011;25881;47.462;19.304;2023-03-13T01:13:49;13.98;;;7.88;;
40162;SDS011;25881;47.462;19.304;2023-03-13T01:16:15;15.25;;;8.75;;
40162;SDS011;25881;47.462;19.304;2023-03-13T01:18:42;19.20;;;9.15;;
40162;SDS011;25881;47.462;19.304;2023-03-13T01:21:08;16.27;;;8.63;;
40162;SDS011;25881;47.462;19.304;2023-03-13T01:23:33;14.95;;;8.18;;
40162;SDS011;25881;47.462;19.304;2023-03-13T01:25:59;12.93;;;7.88;;
40162;SDS011;25881;47.462;19.304;2023-03-13T01:28:24;16.50;;;8.32;;
40162;SDS011;25881;47.462;19.304;2023-03-13T01:30:50;15.43;;;7.47;;
40162;SDS011;25881;47.462;19.304;2023-03-13T01:33:15;14.15;;;8.68;;
40162;SDS011;25881;47.462;19.304;2023-03-13T01:35:41;15.35;;;9.10;;
40162;SDS011;25881;47.462;19.304;2023-03-13T01:38:06;15.45;;;8.52;;
40162;SDS011;25881;47.462;19.304;2023-03-13T01:40:41;15.35;;;7.72;;
40162;SDS011;25881;47.462;19.304;2023-03-13T01:43:24;14.27;;;8.18;;
40162;SDS011;25881;47.462;19.304;2023-03-13T01:45:56;14.27;;;8.63;;
40162;SDS011;25881;47.462;19.304;2023-03-13T01:48:36;17.30;;;9.55;;
40162;SDS011;25881;47.462;19.304;2023-03-13T01:51:08;15.05;;;8.40;;
40162;SDS011;25881;47.462;19.304;2023-03-13T01:53:34;16.75;;;8.57;;
40162;SDS011;25881;47.462;19.304;2023-03-13T01:56:01;15.15;;;9.07;;
40162;SDS011;25881;47.462;19.304;2023-03-13T01:58:28;16.25;;;9.65;;
40162;SDS011;25881;47.462;19.304;2023-03-13T02:00:54;18.58;;;10.23;;
40162;SDS011;25881;47.462;19.304;2023-03-13T02:03:19;18.73;;;11.35;;
40162;SDS011;25881;47.462;19.304;2023-03-13T02:05:45;23.27;;;13.43;;
40162;SDS011;25881;47.462;19.304;2023-03-13T02:08:15;18.92;;;11.07;;
40162;SDS011;25881;47.462;19.304;2023-03-13T02:10:47;19.08;;;10.50;;
40162;SDS011;25881;47.462;19.304;2023-03-13T02:13:14;18.92;;;9.95;;
40162;SDS011;25881;47.462;19.304;2023-03-13T02:15:41;16.15;;;9.73;;
40162;SDS011;25881;47.462;19.304;2023-03-13T02:18:06;15.50;;;9.73;;
40162;SDS011;25881;47.462;19.304;2023-03-13T02:20:32;15.13;;;8.48;;
40162;SDS011;25881;47.462;19.304;2023-03-13T02:23:18;19.90;;;9.43;;
40162;SDS011;25881;47.462;19.304;2023-03-13T02:25:48;13.77;;;8.27;;
40162;SDS011;25881;47.462;19.304;2023-03-13T02:28:16;14.48;;;8.35;;
40162;SDS011;25881;47.462;19.304;2023-03-13T02:30:43;17.23;;;8.93;;
40162;SDS011;25881;47.462;19.304;2023-03-13T02:33:09;14.55;;;8.48;;
40162;SDS011;25881;47.462;19.304;2023-03-13T02:35:35;14.63;;;8.07;;
40162;SDS011;25881;47.462;19.304;2023-03-13T02:38:01;13.50;;;8.48;;
40162;SDS011;25881;47.462;19.304;2023-03-13T02:40:28;13.82;;;8.50;;
40162;SDS011;25881;47.462;19.304;2023-03-13T02:42:54;13.85;;;8.13;;
40162;SDS011;25881;47.462;19.304;2023-03-13T02:45:20;14.00;;;8.45;;
40162;SDS011;25881;47.462;19.304;2023-03-13T02:47:45;13.52;;;8.15;;
40162;SDS011;25881;47.462;19.304;2023-03-13T02:50:11;14.80;;;8.23;;
40162;SDS011;25881;47.462;19.304;2023-03-13T02:52:39;14.40;;;8.57;;
40162;SDS011;25881;47.462;19.304;2023-03-13T02:55:14;14.52;;;8.93;;
40162;SDS011;25881;47.462;19.304;2023-03-13T02:57:42;14.25;;;7.93;;
40162;SDS011;25881;47.462;19.304;2023-03-13T03:00:07;13.57;;;8.60;;
40162;SDS011;25881;47.462;19.304;2023-03-13T03:02:36;13.45;;;7.82;;
40162;SDS011;25881;47.462;19.304;2023-03-13T03:05:02;14.33;;;8.73;;
40162;SDS011;25881;47.462;19.304;2023-03-13T03:07:27;11.98;;;7.97;;
40162;SDS011;25881;47.462;19.304;2023-03-13T03:09:53;16.45;;;8.40;;
40162;SDS011;25881;47.462;19.304;2023-03-13T03:12:19;14.88;;;8.43;;
40162;SDS011;25881;47.462;19.304;2023-03-13T03:14:44;11.70;;;7.80;;
40162;SDS011;25881;47.462;19.304;2023-03-13T03:17:09;12.85;;;8.07;;
40162;SDS011;25881;47.462;19.304;2023-03-13T03:19:35;15.35;;;8.23;;
40162;SDS011;25881;47.462;19.304;2023-03-13T03:22:00;11.07;;;7.67;;
40162;SDS011;25881;47.462;19.304;2023-03-13T03:24:25;14.10;;;8.53;;
40162;SDS011;25881;47.462;19.304;2023-03-13T03:26:50;13.85;;;8.45;;
40162;SDS011;25881;47.462;19.304;2023-03-13T03:29:16;11.33;;;7.93;;
40162;SDS011;25881;47.462;19.304;2023-03-13T03:31:41;14.47;;;8.17;;
40162;SDS011;25881;47.462;19.304;2023-03-13T03:34:06;12.57;;;8.23;;
40162;SDS011;25881;47.462;19.304;2023-03-13T03:36:31;14.33;;;8.53;;
40162;SDS011;25881;47.462;19.304;2023-03-13T03:38:57;14.50;;;8.63;;
40162;SDS011;25881;47.462;19.304;2023-03-13T03:41:22;23.40;;;9.23;;
40162;SDS011;25881;47.462;19.304;2023-03-13T03:43:47;15.93;;;9.00;;
40162;SDS011;25881;47.462;19.304;2023-03-13T03:46:13;14.65;;;9.00;;
40162;SDS011;25881;47.462;19.304;2023-03-13T03:48:39;16.42;;;9.73;;
40162;SDS011;25881;47.462;19.304;2023-03-13T03:51:04;19.08;;;10.07;;
40162;SDS011;25881;47.462;19.304;2023-03-13T03:53:30;16.75;;;10.02;;
40162;SDS011;25881;47.462;19.304;2023-03-13T03:55:56;17.45;;;9.77;;
40162;SDS011;25881;47.462;19.304;2023-03-13T03:58:21;17.92;;;10.23;;
40162;SDS011;25881;47.462;19.304;2023-03-13T04:00:47;16.95;;;9.98;;
40162;SDS011;25881;47.462;19.304;2023-03-13T04:03:12;18.48;;;10.18;;
40162;SDS011;25881;47.462;19.304;2023-03-13T04:05:38;16.23;;;9.55;;
40162;SDS011;25881;47.462;19.304;2023-03-13T04:08:03;16.07;;;8.70;;
40162;SDS011;25881;47.462;19.304;2023-03-13T04:10:29;14.77;;;9.10;;
40162;SDS011;25881;47.462;19.304;2023-03-13T04:12:54;13.25;;;8.93;;
40162;SDS011;25881;47.462;19.304;2023-03-13T04:15:19;15.90;;;8.77;;
40162;SDS011;25881;47.462;19.304;2023-03-13T04:17:44;15.43;;;9.00;;
40162;SDS011;25881;47.462;19.304;2023-03-13T04:20:10;12.40;;;8.40;;
40162;SDS011;25881;47.462;19.304;2023-03-13T04:22:37;13.63;;;9.05;;
40162;SDS011;25881;47.462;19.304;2023-03-13T04:25:03;12.57;;;8.48;;
40162;SDS011;25881;47.462;19.304;2023-03-13T04:27:28;15.95;;;8.60;;
40162;SDS011;25881;47.462;19.304;2023-03-13T04:29:53;12.82;;;8.05;;
40162;SDS011;25881;47.462;19.304;2023-03-13T04:32:19;12.80;;;8.00;;
40162;SDS011;25881;47.462;19.304;2023-03-13T04:34:44;12.90;;;8.07;;
40162;SDS011;25881;47.462;19.304;2023-03-13T04:37:09;13.17;;;7.80;;
40162;SDS011;25881;47.462;19.304;2023-03-13T04:39:34;13.87;;;7.83;;
40162;SDS011;25881;47.462;19.304;2023-03-13T04:42:00;11.57;;;7.67;;
40162;SDS011;25881;47.462;19.304;2023-03-13T04:44:25;12.47;;;8.13;;
40162;SDS011;25881;47.462;19.304;2023-03-13T04:46:50;14.47;;;7.67;;
40162;SDS011;25881;47.462;19.304;2023-03-13T04:49:15;13.77;;;8.40;;
40162;SDS011;25881;47.462;19.304;2023-03-13T04:51:41;15.70;;;8.82;;
40162;SDS011;25881;47.462;19.304;2023-03-13T04:54:07;18.45;;;8.98;;
40162;SDS011;25881;47.462;19.304;2023-03-13T04:56:32;17.05;;;10.00;;
40162;SDS011;25881;47.462;19.304;2023-03-13T04:58:58;12.82;;;8.73;;
40162;SDS011;25881;47.462;19.304;2023-03-13T05:01:23;17.63;;;9.55;;
40162;SDS011;25881;47.462;19.304;2023-03-13T05:03:48;19.95;;;9.77;;
40162;SDS011;25881;47.462;19.304;2023-03-13T05:06:14;18.63;;;10.27;;
40162;SDS011;25881;47.462;19.304;2023-03-13T05:08:39;20.43;;;10.97;;
40162;SDS011;25881;47.462;19.304;2023-03-13T05:11:04;19.00;;;11.27;;
40162;SDS011;25881;47.462;19.304;2023-03-13T05:13:30;17.83;;;10.63;;
40162;SDS011;25881;47.462;19.304;2023-03-13T05:15:55;20.25;;;10.75;;
40162;SDS011;25881;47.462;19.304;2023-03-13T05:18:20;17.57;;;10.83;;
40162;SDS011;25881;47.462;19.304;2023-03-13T05:20:46;15.23;;;9.70;;
40162;SDS011;25881;47.462;19.304;2023-03-13T05:23:11;13.97;;;8.80;;
40162;SDS011;25881;47.462;19.304;2023-03-13T05:25:36;12.47;;;7.90;;
40162;SDS011;25881;47.462;19.304;2023-03-13T05:28:01;14.80;;;8.57;;
40162;SDS011;25881;47.462;19.304;2023-03-13T05:30:27;12.88;;;7.75;;
40162;SDS011;25881;47.462;19.304;2023-03-13T05:32:52;12.50;;;8.83;;
40162;SDS011;25881;47.462;19.304;2023-03-13T05:35:17;15.23;;;8.88;;
40162;SDS011;25881;47.462;19.304;2023-03-13T05:37:43;16.08;;;8.75;;
40162;SDS011;25881;47.462;19.304;2023-03-13T05:40:09;12.90;;;9.48;;
40162;SDS011;25881;47.462;19.304;2023-03-13T05:42:35;15.07;;;8.15;;
40162;SDS011;25881;47.462;19.304;2023-03-13T05:45:00;13.70;;;8.38;;
40162;SDS011;25881;47.462;19.304;2023-03-13T05:47:26;14.23;;;9.20;;
40162;SDS011;25881;47.462;19.304;2023-03-13T05:49:51;11.40;;;7.73;;
40162;SDS011;25881;47.462;19.304;2023-03-13T05:52:16;12.63;;;7.80;;
40162;SDS011;25881;47.462;19.304;2023-03-13T05:54:41;12.27;;;8.10;;
40162;SDS011;25881;47.462;19.304;2023-03-13T05:57:07;11.18;;;7.25;;
40162;SDS011;25881;47.462;19.304;2023-03-13T05:59:32;12.93;;;8.40;;
40162;SDS011;25881;47.462;19.304;2023-03-13T06:01:57;14.57;;;9.02;;
40162;SDS011;25881;47.462;19.304;2023-03-13T06:04:22;13.20;;;8.67;;
40162;SDS011;25881;47.462;19.304;2023-03-13T06:06:48;14.10;;;8.63;;
40162;SDS011;25881;47.462;19.304;2023-03-13T06:09:13;15.75;;;8.40;;
40162;SDS011;25881;47.462;19.304;2023-03-13T06:11:38;17.23;;;10.03;;
40162;SDS011;25881;47.462;19.304;2023-03-13T06:14:03;15.63;;;9.77;;
40162;SDS011;25881;47.462;19.304;2023-03-13T06:16:29;15.43;;;9.13;;
40162;SDS011;25881;47.462;19.304;2023-03-13T06:18:54;14.83;;;9.77;;
40162;SDS011;25881;47.462;19.304;2023-03-13T06:21:19;20.48;;;10.60;;
40162;SDS011;25881;47.462;19.304;2023-03-13T06:23:44;19.17;;;10.70;;
40162;SDS011;25881;47.462;19.304;2023-03-13T06:26:10;15.93;;;10.15;;
40162;SDS011;25881;47.462;19.304;2023-03-13T06:28:35;16.50;;;9.50;;
40162;SDS011;25881;47.462;19.304;2023-03-13T06:31:01;15.15;;;10.15;;
40162;SDS011;25881;47.462;19.304;2023-03-13T06:33:26;13.27;;;7.93;;
40162;SDS011;25881;47.462;19.304;2023-03-13T06:35:52;18.63;;;10.07;;
40162;SDS011;25881;47.462;19.304;2023-03-13T06:38:17;13.27;;;8.53;;
40162;SDS011;25881;47.462;19.304;2023-03-13T06:40:42;17.23;;;9.52;;
40162;SDS011;25881;47.462;19.304;2023-03-13T06:43:07;17.10;;;8.97;;
40162;SDS011;25881;47.462;19.304;2023-03-13T06:45:34;17.47;;;10.63;;
40162;SDS011;25881;47.462;19.304;2023-03-13T06:47:59;15.80;;;9.18;;
40162;SDS011;25881;47.462;19.304;2023-03-13T06:50:24;14.63;;;8.80;;
40162;SDS011;25881;47.462;19.304;2023-03-13T06:52:49;14.90;;;9.10;;
40162;SDS011;25881;47.462;19.304;2023-03-13T06:55:15;12.67;;;8.17;;
40162;SDS011;25881;47.462;19.304;2023-03-13T06:57:40;13.02;;;8.27;;
40162;SDS011;25881;47.462;19.304;2023-03-13T07:00:05;15.70;;;8.50;;
40162;SDS011;25881;47.462;19.304;2023-03-13T07:02:31;12.60;;;8.10;;
40162;SDS011;25881;47.462;19.304;2023-03-13T07:04:57;13.53;;;7.83;;
40162;SDS011;25881;47.462;19.304;2023-03-13T07:07:22;16.33;;;9.10;;
40162;SDS011;25881;47.462;19.304;2023-03-13T07:09:47;15.27;;;9.17;;
40162;SDS011;25881;47.462;19.304;2023-03-13T07:12:13;12.75;;;8.50;;
40162;SDS011;25881;47.462;19.304;2023-03-13T07:14:38;13.88;;;8.32;;
40162;SDS011;25881;47.462;19.304;2023-03-13T07:17:03;13.73;;;8.77;;
40162;SDS011;25881;47.462;19.304;2023-03-13T07:19:28;14.70;;;8.93;;
40162;SDS011;25881;47.462;19.304;2023-03-13T07:21:54;16.50;;;8.37;;
40162;SDS011;25881;47.462;19.304;2023-03-13T07:24:20;15.27;;;9.10;;
40162;SDS011;25881;47.462;19.304;2023-03-13T07:26:46;16.87;;;8.83;;
40162;SDS011;25881;47.462;19.304;2023-03-13T07:29:11;12.48;;;8.45;;
40162;SDS011;25881;47.462;19.304;2023-03-13T07:31:36;13.97;;;8.30;;
40162;SDS011;25881;47.462;19.304;2023-03-13T07:34:03;15.18;;;8.38;;
40162;SDS011;25881;47.462;19.304;2023-03-13T07:36:28;15.00;;;8.18;;
40162;SDS011;25881;47.462;19.304;2023-03-13T07:38:54;14.02;;;8.73;;
40162;SDS011;25881;47.462;19.304;2023-03-13T07:41:20;11.93;;;7.82;;
40162;SDS011;25881;47.462;19.304;2023-03-13T07:43:45;13.27;;;8.10;;
40162;SDS011;25881;47.462;19.304;2023-03-13T07:46:11;15.03;;;7.73;;
40162;SDS011;25881;47.462;19.304;2023-03-13T07:48:37;12.50;;;8.15;;
40162;SDS011;25881;47.462;19.304;2023-03-13T07:51:04;10.90;;;7.28;;
40162;SDS011;25881;47.462;19.304;2023-03-13T07:53:30;17.35;;;9.60;;
40162;SDS011;25881;47.462;19.304;2023-03-13T07:58:21;12.87;;;8.90;;
40162;SDS011;25881;47.462;19.304;2023-03-13T08:00:47;17.35;;;8.25;;
40162;SDS011;25881;47.462;19.304;2023-03-13T08:03:12;12.07;;;7.72;;
40162;SDS011;25881;47.462;19.304;2023-03-13T08:05:37;11.10;;;7.20;;
40162;SDS011;25881;47.462;19.304;2023-03-13T08:08:03;10.13;;;6.75;;
40162;SDS011;25881;47.462;19.304;2023-03-13T08:10:29;11.40;;;6.75;;
40162;SDS011;25881;47.462;19.304;2023-03-13T08:12:54;11.20;;;6.47;;
40162;SDS011;25881;47.462;19.304;2023-03-13T08:15:20;9.88;;;6.32;;
40162;SDS011;25881;47.462;19.304;2023-03-13T08:17:49;9.80;;;5.97;;
40162;SDS011;25881;47.462;19.304;2023-03-13T08:20:15;20.80;;;12.05;;
40162;SDS011;25881;47.462;19.304;2023-03-13T08:22:42;10.83;;;6.60;;
40162;SDS011;25881;47.462;19.304;2023-03-13T08:25:08;15.87;;;7.03;;
40162;SDS011;25881;47.462;19.304;2023-03-13T08:27:33;10.38;;;6.75;;
40162;SDS011;25881;47.462;19.304;2023-03-13T08:29:58;12.57;;;6.37;;
40162;SDS011;25881;47.462;19.304;2023-03-13T08:32:24;8.83;;;5.50;;
40162;SDS011;25881;47.462;19.304;2023-03-13T08:34:49;13.10;;;5.67;;
40162;SDS011;25881;47.462;19.304;2023-03-13T08:37:14;8.93;;;5.03;;
40162;SDS011;25881;47.462;19.304;2023-03-13T08:39:40;12.18;;;6.10;;
40162;SDS011;25881;47.462;19.304;2023-03-13T08:42:06;10.85;;;5.85;;
40162;SDS011;25881;47.462;19.304;2023-03-13T08:44:32;10.57;;;5.30;;
40162;SDS011;25881;47.462;19.304;2023-03-13T08:46:57;13.03;;;4.83;;
40162;SDS011;25881;47.462;19.304;2023-03-13T08:49:23;8.43;;;5.43;;
40162;SDS011;25881;47.462;19.304;2023-03-13T08:51:49;9.07;;;5.30;;
40162;SDS011;25881;47.462;19.304;2023-03-13T08:54:14;10.17;;;6.23;;
40162;SDS011;25881;47.462;19.304;2023-03-13T08:56:39;9.38;;;4.40;;
40162;SDS011;25881;47.462;19.304;2023-03-13T08:59:07;7.20;;;4.63;;
40162;SDS011;25881;47.462;19.304;2023-03-13T09:01:33;10.23;;;5.07;;
40162;SDS011;25881;47.462;19.304;2023-03-13T09:03:59;10.52;;;4.80;;
40162;SDS011;25881;47.462;19.304;2023-03-13T09:06:24;12.93;;;4.75;;
40162;SDS011;25881;47.462;19.304;2023-03-13T09:08:49;10.40;;;5.33;;
40162;SDS011;25881;47.462;19.304;2023-03-13T09:11:16;8.43;;;5.77;;
40162;SDS011;25881;47.462;19.304;2023-03-13T09:13:43;19.75;;;10.57;;
40162;SDS011;25881;47.462;19.304;2023-03-13T09:16:09;10.70;;;6.13;;
40162;SDS011;25881;47.462;19.304;2023-03-13T09:18:35;6.35;;;4.40;;
40162;SDS011;25881;47.462;19.304;2023-03-13T09:21:01;8.02;;;4.35;;
40162;SDS011;25881;47.462;19.304;2023-03-13T09:23:26;6.97;;;4.35;;
40162;SDS011;25881;47.462;19.304;2023-03-13T09:25:52;9.18;;;5.10;;
40162;SDS011;25881;47.462;19.304;2023-03-13T09:28:18;7.32;;;4.35;;
40162;SDS011;25881;47.462;19.304;2023-03-13T09:30:43;12.63;;;4.57;;
40162;SDS011;25881;47.462;19.304;2023-03-13T09:33:08;8.27;;;4.22;;
40162;SDS011;25881;47.462;19.304;2023-03-13T09:35:34;10.10;;;5.50;;
40162;SDS011;25881;47.462;19.304;2023-03-13T09:37:59;11.90;;;5.77;;
40162;SDS011;25881;47.462;19.304;2023-03-13T09:40:24;10.63;;;5.72;;
40162;SDS011;25881;47.462;19.304;2023-03-13T09:42:57;11.52;;;5.75;;
40162;SDS011;25881;47.462;19.304;2023-03-13T09:45:27;8.02;;;4.30;;
40162;SDS011;25881;47.462;19.304;2023-03-13T09:47:57;8.88;;;4.32;;
40162;SDS011;25881;47.462;19.304;2023-03-13T09:50:28;7.57;;;3.40;;
40162;SDS011;25881;47.462;19.304;2023-03-13T09:52:58;8.73;;;3.28;;
40162;SDS011;25881;47.462;19.304;2023-03-13T09:55:30;8.07;;;3.95;;
40162;SDS011;25881;47.462;19.304;2023-03-13T09:58:13;8.57;;;4.90;;
40162;SDS011;25881;47.462;19.304;2023-03-13T10:00:42;7.95;;;3.60;;
40162;SDS011;25881;47.462;19.304;2023-03-13T10:05:35;6.07;;;3.17;;
40162;SDS011;25881;47.462;19.304;2023-03-13T10:10:43;5.10;;;2.95;;
40162;SDS011;25881;47.462;19.304;2023-03-13T10:13:23;6.40;;;3.50;;
40162;SDS011;25881;47.462;19.304;2023-03-13T10:18:18;5.90;;;3.10;;
40162;SDS011;25881;47.462;19.304;2023-03-13T10:20:46;8.98;;;3.75;;
40162;SDS011;25881;47.462;19.304;2023-03-13T10:23:19;5.63;;;2.72;;
40162;SDS011;25881;47.462;19.304;2023-03-13T10:25:45;8.27;;;4.65;;
40162;SDS011;25881;47.462;19.304;2023-03-13T10:28:11;11.05;;;3.55;;
40162;SDS011;25881;47.462;19.304;2023-03-13T10:30:37;11.40;;;3.50;;
40162;SDS011;25881;47.462;19.304;2023-03-13T10:35:33;6.20;;;3.30;;
40162;SDS011;25881;47.462;19.304;2023-03-13T10:38:03;9.98;;;3.40;;
40162;SDS011;25881;47.462;19.304;2023-03-13T10:40:29;8.73;;;3.50;;
40162;SDS011;25881;47.462;19.304;2023-03-13T10:43:02;11.07;;;3.17;;
40162;SDS011;25881;47.462;19.304;2023-03-13T10:45:30;6.97;;;3.65;;
40162;SDS011;25881;47.462;19.304;2023-03-13T10:47:56;5.33;;;3.20;;
40162;SDS011;25881;47.462;19.304;2023-03-13T10:50:24;10.82;;;4.32;;
40162;SDS011;25881;47.462;19.304;2023-03-13T10:52:50;6.45;;;2.80;;
40162;SDS011;25881;47.462;19.304;2023-03-13T10:55:19;8.85;;;3.30;;
40162;SDS011;25881;47.462;19.304;2023-03-13T11:02:53;6.15;;;3.30;;
40162;SDS011;25881;47.462;19.304;2023-03-13T11:07:47;7.93;;;3.22;;
40162;SDS011;25881;47.462;19.304;2023-03-13T11:10:16;10.43;;;3.20;;
40162;SDS011;25881;47.462;19.304;2023-03-13T11:12:46;6.85;;;2.95;;
40162;SDS011;25881;47.462;19.304;2023-03-13T11:15:12;9.43;;;3.35;;
40162;SDS011;25881;47.462;19.304;2023-03-13T11:17:39;11.15;;;4.13;;
40162;SDS011;25881;47.462;19.304;2023-03-13T11:20:18;12.98;;;3.70;;
40162;SDS011;25881;47.462;19.304;2023-03-13T11:22:47;8.95;;;3.60;;
40162;SDS011;25881;47.462;19.304;2023-03-13T11:25:31;9.55;;;3.80;;
40162;SDS011;25881;47.462;19.304;2023-03-13T11:30:31;9.27;;;3.40;;
40162;SDS011;25881;47.462;19.304;2023-03-13T11:33:03;13.15;;;4.03;;
40162;SDS011;25881;47.462;19.304;2023-03-13T11:37:57;7.03;;;3.60;;
40162;SDS011;25881;47.462;19.304;2023-03-13T11:40:27;7.50;;;4.35;;
40162;SDS011;25881;47.462;19.304;2023-03-13T11:43:06;10.88;;;3.90;;
40162;SDS011;25881;47.462;19.304;2023-03-13T11:48:07;8.95;;;3.88;;
40162;SDS011;25881;47.462;19.304;2023-03-13T11:58:28;9.68;;;3.97;;
40162;SDS011;25881;47.462;19.304;2023-03-13T12:01:04;6.38;;;3.92;;
40162;SDS011;25881;47.462;19.304;2023-03-13T12:03:47;8.80;;;3.90;;
40162;SDS011;25881;47.462;19.304;2023-03-13T12:09:23;12.80;;;4.43;;
40162;SDS011;25881;47.462;19.304;2023-03-13T12:11:55;12.52;;;4.55;;
40162;SDS011;25881;47.462;19.304;2023-03-13T12:19:54;12.68;;;5.15;;
40162;SDS011;25881;47.462;19.304;2023-03-13T12:22:27;10.38;;;4.95;;
40162;SDS011;25881;47.462;19.304;2023-03-13T12:25:04;14.75;;;5.03;;
40162;SDS011;25881;47.462;19.304;2023-03-13T12:27:38;13.20;;;4.93;;
40162;SDS011;25881;47.462;19.304;2023-03-13T12:32:37;8.50;;;4.20;;
40162;SDS011;25881;47.462;19.304;2023-03-13T12:59:15;6.72;;;3.60;;
40162;SDS011;25881;47.462;19.304;2023-03-13T13:01:43;10.20;;;3.60;;
40162;SDS011;25881;47.462;19.304;2023-03-13T13:04:19;7.40;;;3.80;;
40162;SDS011;25881;47.462;19.304;2023-03-13T13:06:49;8.45;;;3.38;;
40162;SDS011;25881;47.462;19.304;2023-03-13T13:09:19;7.45;;;3.72;;
40162;SDS011;25881;47.462;19.304;2023-03-13T13:11:46;8.35;;;3.42;;
40162;SDS011;25881;47.462;19.304;2023-03-13T13:16:44;7.20;;;3.80;;
40162;SDS011;25881;47.462;19.304;2023-03-13T13:24:48;7.55;;;3.40;;
40162;SDS011;25881;47.462;19.304;2023-03-13T13:29:59;7.82;;;3.95;;
40162;SDS011;25881;47.462;19.304;2023-03-13T13:32:32;7.00;;;3.03;;
40162;SDS011;25881;47.462;19.304;2023-03-13T13:35:02;7.32;;;3.20;;
40162;SDS011;25881;47.462;19.304;2023-03-13T13:37:30;8.90;;;3.75;;
40162;SDS011;25881;47.462;19.304;2023-03-13T13:40:15;6.90;;;2.80;;
40162;SDS011;25881;47.462;19.304;2023-03-13T13:42:50;8.35;;;3.70;;
40162;SDS011;25881;47.462;19.304;2023-03-13T13:47:46;6.37;;;2.70;;
40162;SDS011;25881;47.462;19.304;2023-03-13T13:52:43;9.38;;;3.08;;
40162;SDS011;25881;47.462;19.304;2023-03-13T13:57:45;10.85;;;3.08;;
40162;SDS011;25881;47.462;19.304;2023-03-13T14:02:53;6.70;;;2.90;;
40162;SDS011;25881;47.462;19.304;2023-03-13T14:05:23;7.35;;;3.20;;
40162;SDS011;25881;47.462;19.304;2023-03-13T14:13:00;6.25;;;2.60;;
40162;SDS011;25881;47.462;19.304;2023-03-13T14:15:27;10.95;;;3.25;;
40162;SDS011;25881;47.462;19.304;2023-03-13T14:18:40;11.52;;;5.32;;
40162;SDS011;25881;47.462;19.304;2023-03-13T14:20:39;11.63;;;4.53;;
40162;SDS011;25881;47.462;19.304;2023-03-13T14:23:08;12.20;;;3.90;;
40162;SDS011;25881;47.462;19.304;2023-03-13T14:28:05;8.52;;;3.20;;
40162;SDS011;25881;47.462;19.304;2023-03-13T14:30:41;15.93;;;3.50;;
40162;SDS011;25881;47.462;19.304;2023-03-13T14:33:07;7.35;;;3.75;;
40162;SDS011;25881;47.462;19.304;2023-03-13T14:35:32;7.17;;;3.63;;
40162;SDS011;25881;47.462;19.304;2023-03-13T14:38:00;6.13;;;2.97;;
40162;SDS011;25881;47.462;19.304;2023-03-13T14:40:27;7.65;;;2.80;;
40162;SDS011;25881;47.462;19.304;2023-03-13T14:42:57;10.70;;;3.33;;
40162;SDS011;25881;47.462;19.304;2023-03-13T14:45:24;6.18;;;3.00;;
40162;SDS011;25881;47.462;19.304;2023-03-13T14:47:50;9.23;;;3.72;;
40162;SDS011;25881;47.462;19.304;2023-03-13T14:50:15;8.65;;;3.75;;
40162;SDS011;25881;47.462;19.304;2023-03-13T14:52:51;10.77;;;4.47;;
40162;SDS011;25881;47.462;19.304;2023-03-13T14:57:56;5.05;;;2.65;;
40162;SDS011;25881;47.462;19.304;2023-03-13T15:06:01;8.77;;;2.63;;
40162;SDS011;25881;47.462;19.304;2023-03-13T15:08:27;6.70;;;2.63;;
40162;SDS011;25881;47.462;19.304;2023-03-13T15:10:52;7.00;;;2.20;;
40162;SDS011;25881;47.462;19.304;2023-03-13T15:13:24;5.18;;;2.10;;
40162;SDS011;25881;47.462;19.304;2023-03-13T15:15:51;3.92;;;2.25;;
40162;SDS011;25881;47.462;19.304;2023-03-13T15:20:42;3.55;;;1.73;;
40162;SDS011;25881;47.462;19.304;2023-03-13T15:23:09;3.10;;;1.42;;
40162;SDS011;25881;47.462;19.304;2023-03-13T15:25:35;5.83;;;2.30;;
40162;SDS011;25881;47.462;19.304;2023-03-13T15:28:00;9.17;;;2.17;;
40162;SDS011;25881;47.462;19.304;2023-03-13T15:30:25;8.38;;;1.70;;
40162;SDS011;25881;47.462;19.304;2023-03-13T15:32:50;6.65;;;1.73;;
40162;SDS011;25881;47.462;19.304;2023-03-13T15:37:47;8.90;;;2.45;;
40162;SDS011;25881;47.462;19.304;2023-03-13T15:40:13;8.40;;;1.87;;
40162;SDS011;25881;47.462;19.304;2023-03-13T15:42:39;4.85;;;1.70;;
40162;SDS011;25881;47.462;19.304;2023-03-13T15:45:04;4.20;;;1.47;;
40162;SDS011;25881;47.462;19.304;2023-03-13T15:47:30;9.35;;;1.70;;
40162;SDS011;25881;47.462;19.304;2023-03-13T15:49:55;8.80;;;2.13;;
40162;SDS011;25881;47.462;19.304;2023-03-13T15:52:22;5.40;;;1.50;;
40162;SDS011;25881;47.462;19.304;2023-03-13T15:54:47;3.95;;;1.23;;
40162;SDS011;25881;47.462;19.304;2023-03-13T15:57:20;5.80;;;1.50;;
40162;SDS011;25881;47.462;19.304;2023-03-13T15:59:47;5.63;;;2.00;;
40162;SDS011;25881;47.462;19.304;2023-03-13T16:02:13;4.90;;;2.15;;
40162;SDS011;25881;47.462;19.304;2023-03-13T16:04:39;6.05;;;1.70;;
40162;SDS011;25881;47.462;19.304;2023-03-13T16:07:14;4.93;;;1.38;;
40162;SDS011;25881;47.462;19.304;2023-03-13T16:09:40;2.38;;;1.60;;
40162;SDS011;25881;47.462;19.304;2023-03-13T16:12:06;2.75;;;1.67;;
40162;SDS011;25881;47.462;19.304;2023-03-13T16:14:31;6.22;;;2.55;;